Time;durP1;ratioP1;P1;durP2;ratioP2;P2;SDS_P1;SDS_P2;PMS_P1;PMS_P2;Temp;Humidity;BMP_temperature;BMP_pressure;BME280_temperature;BME280_humidity;BME280_pressure;Samples;Min_cycle;Max_cycle;Signal;HPM_P1;HPM_P2
2023/10/16 00:00:54;;;;;;;3.17;1.80;;;1.20;99.90;;;;;;2069263;28;20262;-69
2023/10/16 00:01:54;;;;;;;3.22;1.80;;;1.20;99.90;;;;;;2071596;28;20742;-69
2023/10/16 00:03:01;;;;;;;3.40;1.60;;;1.20;99.90;;;;;;2074717;28;20312;-69
2023/10/16 00:04:04;;;;;;;2.28;1.60;;;1.10;99.90;;;;;;2085070;28;20236;-69
2023/10/16 00:05:08;;;;;;;3.38;1.60;;;1.10;99.90;;;;;;2070774;28;20312;-69
2023/10/16 00:06:12;;;;;;;3.85;1.60;;;1.20;99.90;;;;;;2070122;28;20205;-70
2023/10/16 00:07:14;;;;;;;3.95;1.80;;;1.10;99.90;;;;;;2081370;28;20201;-70
2023/10/16 00:08:18;;;;;;;4.05;2.10;;;1.00;99.90;;;;;;2080945;28;20399;-70
2023/10/16 00:09:22;;;;;;;2.10;1.60;;;1.00;99.90;;;;;;2078773;28;20260;-70
2023/10/16 00:10:25;;;;;;;4.15;1.67;;;1.00;99.90;;;;;;2079240;28;20181;-70
2023/10/16 00:11:25;;;;;;;3.00;1.50;;;1.00;99.90;;;;;;2070818;28;20317;-70
2023/10/16 00:12:29;;;;;;;3.83;1.93;;;0.90;99.90;;;;;;2083676;28;20237;-70
2023/10/16 00:13:37;;;;;;;2.03;1.55;;;0.90;99.90;;;;;;2089976;28;20251;-70
2023/10/16 00:14:38;;;;;;;2.42;1.70;;;0.80;99.90;;;;;;2088438;28;20224;-70
2023/10/16 00:15:40;;;;;;;1.80;1.63;;;0.90;99.90;;;;;;2079746;28;20233;-70
2023/10/16 00:16:44;;;;;;;2.55;1.63;;;1.00;99.90;;;;;;2072756;28;20239;-70
2023/10/16 00:17:49;;;;;;;1.65;1.55;;;1.10;99.90;;;;;;2076380;28;20226;-70
2023/10/16 00:18:53;;;;;;;2.08;1.63;;;1.00;99.90;;;;;;2065311;28;20236;-70
2023/10/16 00:19:54;;;;;;;2.47;1.80;;;1.10;99.90;;;;;;2083185;28;20306;-70
2023/10/16 00:20:57;;;;;;;1.90;1.60;;;1.00;99.90;;;;;;2077348;28;20236;-70
2023/10/16 00:22:00;;;;;;;2.45;1.70;;;1.00;99.90;;;;;;2081012;28;20680;-70
2023/10/16 00:23:04;;;;;;;2.00;1.70;;;1.00;99.90;;;;;;2087678;28;20258;-69
2023/10/16 00:24:07;;;;;;;3.28;1.65;;;1.00;99.90;;;;;;2087578;28;20223;-71
2023/10/16 00:25:07;;;;;;;6.57;1.60;;;1.00;99.90;;;;;;2088644;28;20188;-70
2023/10/16 00:26:12;;;;;;;2.43;1.60;;;1.00;99.90;;;;;;2075694;28;20265;-70
2023/10/16 00:27:16;;;;;;;3.08;1.52;;;1.00;99.90;;;;;;2078534;28;20219;-69
2023/10/16 00:28:21;;;;;;;3.38;1.80;;;1.00;99.90;;;;;;2089465;28;20266;-70
2023/10/16 00:29:35;;;;;;;4.03;1.77;;;1.00;99.90;;;;;;2083541;28;20192;-70
2023/10/16 00:30:38;;;;;;;3.53;1.50;;;1.00;99.90;;;;;;2077063;28;20415;-70
2023/10/16 00:31:42;;;;;;;2.67;1.50;;;1.00;99.90;;;;;;2065159;28;20454;-70
2023/10/16 00:32:43;;;;;;;2.90;1.70;;;1.10;99.90;;;;;;2065458;28;20234;-70
2023/10/16 00:33:44;;;;;;;1.47;1.33;;;1.00;99.90;;;;;;2069901;28;20229;-70
2023/10/16 00:34:46;;;;;;;4.33;1.90;;;1.00;99.90;;;;;;2081134;28;20720;-69
2023/10/16 00:35:48;;;;;;;1.95;1.60;;;0.90;99.90;;;;;;2088002;28;20282;-70
2023/10/16 00:36:54;;;;;;;1.70;1.60;;;1.00;99.90;;;;;;2078961;28;20718;-70
2023/10/16 00:37:56;;;;;;;4.05;1.65;;;0.80;99.90;;;;;;2081809;28;20232;-70
2023/10/16 00:38:58;;;;;;;2.10;1.63;;;0.90;99.90;;;;;;2089461;28;20228;-70
2023/10/16 00:40:00;;;;;;;4.65;1.58;;;0.80;99.90;;;;;;2075815;28;20230;-70
2023/10/16 00:41:17;;;;;;;1.30;1.20;;;0.80;99.90;;;;;;2079568;28;20229;-69
2023/10/16 00:42:18;;;;;;;1.90;1.55;;;0.70;99.90;;;;;;2077168;28;20223;-70
2023/10/16 00:43:22;;;;;;;3.37;1.70;;;0.70;99.90;;;;;;2084543;28;20284;-70
2023/10/16 00:44:22;;;;;;;1.52;1.40;;;0.80;99.90;;;;;;2075744;28;20190;-70
2023/10/16 00:45:24;;;;;;;2.20;1.60;;;0.80;99.90;;;;;;2065261;28;20235;-70
2023/10/16 00:46:32;;;;;;;2.88;1.50;;;0.90;99.90;;;;;;2081131;28;20228;-70
2023/10/16 00:47:35;;;;;;;3.50;1.90;;;0.90;99.90;;;;;;2077075;28;20229;-70
2023/10/16 00:48:37;;;;;;;3.22;1.70;;;0.90;99.90;;;;;;2074607;28;20228;-69
2023/10/16 00:49:38;;;;;;;2.13;1.55;;;0.90;99.90;;;;;;2075354;28;20232;-70
2023/10/16 00:50:39;;;;;;;1.90;1.40;;;1.00;99.90;;;;;;2088689;28;20224;-70
2023/10/16 00:51:41;;;;;;;1.67;1.57;;;1.00;99.90;;;;;;2080647;28;20245;-69
2023/10/16 00:52:42;;;;;;;2.38;1.48;;;1.00;99.90;;;;;;2072937;28;20731;-70
2023/10/16 00:53:45;;;;;;;2.30;1.55;;;1.00;99.90;;;;;;2060942;28;20217;-70
2023/10/16 00:54:46;;;;;;;3.08;1.80;;;0.90;99.90;;;;;;2073805;28;20232;-70
2023/10/16 00:55:49;;;;;;;3.53;1.75;;;0.90;99.90;;;;;;2080764;28;20248;-70
2023/10/16 00:56:51;;;;;;;1.75;1.63;;;0.90;99.90;;;;;;2085483;28;20239;-70
2023/10/16 00:57:52;;;;;;;2.75;1.73;;;0.90;99.90;;;;;;2084136;28;20238;-70
2023/10/16 00:58:55;;;;;;;3.75;1.60;;;0.90;99.90;;;;;;2086060;28;20248;-70
2023/10/16 00:59:58;;;;;;;2.88;1.80;;;0.90;99.90;;;;;;2088065;28;20278;-70
2023/10/16 01:01:02;;;;;;;2.13;1.60;;;0.90;99.90;;;;;;2068048;28;20241;-70
2023/10/16 01:02:14;;;;;;;2.97;1.70;;;0.80;99.90;;;;;;2075071;28;20259;-69
2023/10/16 01:03:20;;;;;;;1.90;1.60;;;0.90;99.90;;;;;;2074598;28;20659;-70
2023/10/16 01:04:20;;;;;;;2.85;1.63;;;0.90;99.90;;;;;;2073581;28;20276;-70
2023/10/16 01:05:23;;;;;;;4.17;1.80;;;0.90;99.90;;;;;;2080164;28;20271;-69
2023/10/16 01:06:45;;;;;;;2.10;1.73;;;1.00;99.90;;;;;;2077108;28;20241;-69
2023/10/16 01:07:45;;;;;;;1.83;1.60;;;1.00;99.90;;;;;;2071102;28;20300;-70
2023/10/16 01:08:50;;;;;;;3.27;1.70;;;1.00;99.90;;;;;;2087621;28;20232;-71
2023/10/16 01:09:51;;;;;;;2.15;1.65;;;0.90;99.90;;;;;;2088325;28;20464;-70
2023/10/16 01:10:57;;;;;;;3.83;1.90;;;0.90;99.90;;;;;;2084377;28;20319;-68
2023/10/16 01:11:57;;;;;;;2.55;1.70;;;0.90;99.90;;;;;;2086028;28;20228;-68
2023/10/16 01:12:59;;;;;;;1.80;1.70;;;0.80;99.90;;;;;;2079242;28;20244;-68
2023/10/16 01:13:59;;;;;;;2.28;1.40;;;0.80;99.90;;;;;;2079834;28;20221;-68
2023/10/16 01:15:00;;;;;;;2.93;1.70;;;0.70;99.90;;;;;;2087836;28;20231;-68
2023/10/16 01:16:01;;;;;;;2.30;1.70;;;0.80;99.90;;;;;;2084094;28;20853;-69
2023/10/16 01:17:03;;;;;;;1.80;1.47;;;0.80;99.90;;;;;;2078170;28;20224;-68
2023/10/16 01:18:06;;;;;;;2.28;1.75;;;0.80;99.90;;;;;;2070060;28;20371;-69
2023/10/16 01:19:09;;;;;;;2.63;1.65;;;0.90;99.90;;;;;;2071878;28;20193;-69
2023/10/16 01:20:10;;;;;;;1.85;1.40;;;0.90;99.90;;;;;;2062178;28;20240;-69
2023/10/16 01:21:13;;;;;;;3.80;1.75;;;1.00;99.90;;;;;;2068289;28;20217;-69
2023/10/16 01:22:14;;;;;;;3.33;1.75;;;0.90;99.90;;;;;;2079091;28;20245;-69
2023/10/16 01:23:18;;;;;;;3.80;1.77;;;0.90;99.90;;;;;;2079921;28;20193;-69
2023/10/16 01:24:19;;;;;;;2.05;1.83;;;0.70;99.90;;;;;;2077496;28;20185;-69
2023/10/16 01:25:20;;;;;;;2.90;1.60;;;0.60;99.90;;;;;;2079712;28;20279;-69
2023/10/16 01:26:21;;;;;;;4.60;1.73;;;0.60;99.90;;;;;;2076080;28;20268;-69
2023/10/16 01:27:29;;;;;;;1.70;1.45;;;0.70;99.90;;;;;;2087885;28;20184;-69
2023/10/16 01:28:30;;;;;;;2.05;1.60;;;0.70;99.90;;;;;;2076189;28;20232;-69
2023/10/16 01:29:31;;;;;;;3.03;1.70;;;0.70;99.90;;;;;;2069138;28;20237;-69
2023/10/16 01:30:34;;;;;;;1.90;1.50;;;0.80;99.90;;;;;;2078599;28;20229;-69
2023/10/16 01:31:37;;;;;;;1.38;1.25;;;0.80;99.90;;;;;;2074451;28;20226;-68
2023/10/16 01:32:40;;;;;;;2.88;2.30;;;0.80;99.90;;;;;;2074388;28;20278;-69
2023/10/16 01:33:44;;;;;;;2.15;1.50;;;0.80;99.90;;;;;;2081745;28;20600;-69
2023/10/16 01:34:46;;;;;;;3.58;1.58;;;0.80;99.90;;;;;;2073737;28;20251;-69
2023/10/16 01:35:47;;;;;;;3.45;1.70;;;0.80;99.90;;;;;;2066570;28;20238;-69
2023/10/16 01:36:47;;;;;;;2.90;1.60;;;0.80;99.90;;;;;;2072414;28;20240;-69
2023/10/16 01:37:49;;;;;;;3.10;1.60;;;0.80;99.90;;;;;;2079846;28;20232;-70
2023/10/16 01:38:50;;;;;;;1.50;1.30;;;0.90;99.90;;;;;;2081248;28;20319;-69
2023/10/16 01:39:54;;;;;;;2.17;1.60;;;0.80;99.90;;;;;;2072727;28;20287;-69
2023/10/16 01:41:09;;;;;;;1.88;1.40;;;0.90;99.90;;;;;;2071184;28;20240;-69
2023/10/16 01:42:11;;;;;;;3.83;1.58;;;0.80;99.90;;;;;;2067656;28;20275;-69
2023/10/16 01:43:13;;;;;;;2.83;1.58;;;0.80;99.90;;;;;;2074886;28;20193;-69
2023/10/16 01:44:18;;;;;;;1.75;1.42;;;0.70;99.90;;;;;;2073892;28;20285;-69
2023/10/16 01:45:20;;;;;;;2.63;1.50;;;0.60;99.90;;;;;;2064136;28;20631;-69
2023/10/16 01:46:20;;;;;;;2.90;1.70;;;0.60;99.90;;;;;;2071799;28;20675;-69
2023/10/16 01:47:22;;;;;;;2.67;1.40;;;0.60;99.90;;;;;;2078115;28;20189;-69
2023/10/16 01:48:24;;;;;;;3.67;1.70;;;0.60;99.90;;;;;;2087085;28;20195;-70
2023/10/16 01:49:25;;;;;;;2.00;1.50;;;0.70;99.90;;;;;;2079013;28;20215;-69
2023/10/16 01:50:27;;;;;;;3.60;1.70;;;0.70;99.90;;;;;;2079554;28;20232;-70
2023/10/16 01:51:30;;;;;;;1.92;1.45;;;0.70;99.90;;;;;;2069418;28;20226;-69
2023/10/16 01:52:33;;;;;;;2.70;1.58;;;0.70;99.90;;;;;;2066667;28;20280;-69
2023/10/16 01:53:36;;;;;;;2.42;1.65;;;0.70;99.90;;;;;;2069573;28;21265;-69
2023/10/16 01:54:44;;;;;;;2.70;1.73;;;0.60;99.90;;;;;;2088005;28;20232;-69
2023/10/16 01:55:51;;;;;;;4.47;1.70;;;0.70;99.90;;;;;;2077939;28;20232;-70
2023/10/16 01:56:51;;;;;;;1.73;1.50;;;0.70;99.90;;;;;;2080610;28;20229;-69
2023/10/16 01:57:53;;;;;;;3.03;1.73;;;0.70;99.90;;;;;;2085145;28;20751;-69
2023/10/16 01:59:01;;;;;;;3.63;1.45;;;0.70;99.90;;;;;;2088730;28;20228;-69
2023/10/16 02:00:05;;;;;;;2.78;1.42;;;0.70;99.90;;;;;;2076200;28;20229;-70
2023/10/16 02:01:06;;;;;;;2.83;1.77;;;0.70;99.90;;;;;;2071168;28;20231;-69
2023/10/16 02:02:09;;;;;;;2.33;2.00;;;0.70;99.90;;;;;;2080075;28;20327;-69
2023/10/16 02:03:09;;;;;;;6.28;1.88;;;0.80;99.90;;;;;;2066613;28;20201;-70
2023/10/16 02:04:10;;;;;;;2.93;2.00;;;0.70;99.90;;;;;;2073098;28;20261;-70
2023/10/16 02:05:13;;;;;;;1.60;1.50;;;0.80;99.90;;;;;;2074449;28;20197;-69
2023/10/16 02:06:18;;;;;;;2.13;1.40;;;0.80;99.90;;;;;;2065045;28;20201;-70
2023/10/16 02:07:18;;;;;;;2.55;1.80;;;0.80;99.90;;;;;;2071448;28;20221;-70
2023/10/16 02:08:20;;;;;;;1.80;1.60;;;0.80;99.90;;;;;;2075388;28;20180;-70
2023/10/16 02:09:23;;;;;;;3.40;1.83;;;0.80;99.90;;;;;;2074687;28;20201;-69
2023/10/16 02:10:24;;;;;;;2.00;1.80;;;0.70;99.90;;;;;;2086193;28;20255;-70
2023/10/16 02:11:25;;;;;;;3.22;1.83;;;0.70;99.90;;;;;;2080510;28;20229;-69
2023/10/16 02:12:26;;;;;;;2.25;2.05;;;0.70;99.90;;;;;;2080530;28;20260;-70
2023/10/16 02:13:27;;;;;;;2.50;1.77;;;0.50;99.90;;;;;;2079598;28;20593;-70
2023/10/16 02:14:28;;;;;;;3.30;2.00;;;0.50;99.90;;;;;;2071225;28;20221;-70
2023/10/16 02:15:28;;;;;;;2.20;2.00;;;0.50;99.90;;;;;;2072981;28;20463;-70
2023/10/16 02:16:31;;;;;;;3.23;1.60;;;0.50;99.90;;;;;;2085834;28;20695;-70
2023/10/16 02:17:31;;;;;;;2.03;1.85;;;0.50;99.90;;;;;;2082156;28;20294;-72
2023/10/16 02:18:40;;;;;;;2.53;1.87;;;0.50;99.90;;;;;;2076303;28;20650;-70
2023/10/16 02:19:44;;;;;;;5.07;2.30;;;0.60;99.90;;;;;;2079124;28;20764;-70
2023/10/16 02:20:45;;;;;;;2.70;1.63;;;0.60;99.90;;;;;;2086354;28;20239;-70
2023/10/16 02:21:46;;;;;;;3.10;1.65;;;0.60;99.90;;;;;;2086529;28;20716;-70
2023/10/16 02:22:47;;;;;;;3.92;1.85;;;0.60;99.90;;;;;;2080247;28;20228;-71
2023/10/16 02:23:47;;;;;;;4.50;2.20;;;0.60;99.90;;;;;;2082635;28;20756;-70
2023/10/16 02:24:49;;;;;;;3.33;1.77;;;0.70;99.90;;;;;;2091242;28;20291;-71
2023/10/16 02:25:50;;;;;;;3.20;1.90;;;0.60;99.90;;;;;;2083876;28;20841;-68
2023/10/16 02:26:57;;;;;;;4.13;1.97;;;0.60;99.90;;;;;;2097586;28;20232;-68
2023/10/16 02:27:58;;;;;;;2.80;1.80;;;0.50;99.90;;;;;;2082991;28;20639;-68
2023/10/16 02:29:00;;;;;;;2.22;1.70;;;0.60;99.90;;;;;;2083395;28;20253;-68
2023/10/16 02:31:21;;;;;;;2.75;1.60;;;0.60;99.90;;;;;;2086150;28;20216;-68
2023/10/16 02:32:22;;;;;;;4.55;1.95;;;0.50;99.90;;;;;;2086513;28;20204;-68
2023/10/16 02:33:26;;;;;;;3.40;1.93;;;0.50;99.90;;;;;;2073306;28;20228;-68
2023/10/16 02:34:27;;;;;;;2.58;2.00;;;0.50;99.90;;;;;;2074314;28;20235;-69
2023/10/16 02:35:28;;;;;;;4.77;2.00;;;0.60;99.90;;;;;;2073122;28;20684;-69
2023/10/16 02:36:29;;;;;;;2.40;1.80;;;0.50;99.90;;;;;;2078219;28;20309;-70
2023/10/16 02:37:30;;;;;;;2.35;1.80;;;0.50;99.90;;;;;;2083499;28;20225;-69
2023/10/16 02:38:30;;;;;;;2.03;1.60;;;0.60;99.90;;;;;;2075462;28;20233;-70
2023/10/16 02:39:37;;;;;;;1.90;1.57;;;0.60;99.90;;;;;;2080226;28;20237;-69
2023/10/16 02:40:39;;;;;;;2.50;1.60;;;0.60;99.90;;;;;;2077000;28;20233;-70
2023/10/16 02:41:41;;;;;;;2.05;1.65;;;0.70;99.90;;;;;;2081742;28;20224;-69
2023/10/16 02:42:42;;;;;;;2.55;1.90;;;0.70;99.90;;;;;;2080983;28;20255;-69
2023/10/16 02:43:45;;;;;;;2.70;2.00;;;0.70;99.90;;;;;;2079767;28;20221;-69
2023/10/16 02:44:46;;;;;;;2.30;2.10;;;0.70;99.90;;;;;;2089020;28;20315;-69
2023/10/16 02:45:51;;;;;;;2.25;1.80;;;0.70;99.90;;;;;;2089466;28;20220;-69
2023/10/16 02:46:52;;;;;;;3.65;2.00;;;0.70;99.90;;;;;;2090758;28;20212;-70
2023/10/16 02:47:53;;;;;;;3.33;1.90;;;0.60;99.90;;;;;;2090257;28;20228;-69
2023/10/16 02:48:54;;;;;;;3.92;2.28;;;0.60;99.90;;;;;;2085993;28;20217;-69
2023/10/16 02:49:56;;;;;;;4.70;2.28;;;0.60;99.90;;;;;;2085627;28;20233;-69
2023/10/16 02:50:59;;;;;;;2.83;1.95;;;0.70;99.90;;;;;;2088312;28;20220;-69
2023/10/16 02:51:59;;;;;;;2.63;1.98;;;0.70;99.90;;;;;;2087832;28;20303;-69
2023/10/16 02:53:00;;;;;;;2.63;1.87;;;0.70;99.90;;;;;;2079664;28;20800;-70
2023/10/16 02:54:01;;;;;;;3.38;1.80;;;0.80;99.90;;;;;;2070359;28;20225;-68
2023/10/16 02:55:01;;;;;;;2.57;2.00;;;0.80;99.90;;;;;;2073025;28;20217;-69
2023/10/16 02:56:08;;;;;;;3.00;2.13;;;0.80;99.90;;;;;;2082809;28;20231;-69
2023/10/16 02:57:10;;;;;;;3.80;2.20;;;0.80;99.90;;;;;;2082372;28;20335;-69
2023/10/16 02:58:11;;;;;;;4.90;2.30;;;0.80;99.90;;;;;;2077700;28;20228;-69
2023/10/16 02:59:12;;;;;;;3.50;2.00;;;0.70;99.90;;;;;;2077225;28;20267;-69
2023/10/16 03:00:34;;;;;;;2.30;1.87;;;0.70;99.90;;;;;;2077530;28;20199;-69
2023/10/16 03:01:35;;;;;;;2.30;2.10;;;0.70;99.90;;;;;;2077218;28;20232;-69
2023/10/16 03:02:35;;;;;;;2.40;1.90;;;0.60;99.90;;;;;;2079474;28;20229;-69
2023/10/16 03:03:36;;;;;;;3.20;1.93;;;0.50;99.90;;;;;;2081930;28;20235;-69
2023/10/16 03:04:36;;;;;;;1.73;1.60;;;0.40;99.90;;;;;;2088764;28;20227;-70
2023/10/16 03:05:37;;;;;;;2.63;1.80;;;0.50;99.90;;;;;;2074375;28;20237;-69
2023/10/16 03:06:40;;;;;;;3.87;2.03;;;0.40;99.90;;;;;;2073979;28;20620;-71
2023/10/16 03:07:44;;;;;;;2.58;1.70;;;0.50;99.90;;;;;;2089724;28;20665;-69
2023/10/16 03:08:52;;;;;;;5.03;2.10;;;0.50;99.90;;;;;;2082547;28;20229;-69
2023/10/16 03:09:52;;;;;;;3.33;1.92;;;0.50;99.90;;;;;;2074036;28;20308;-70
2023/10/16 03:10:54;;;;;;;3.10;1.80;;;0.50;99.90;;;;;;2075029;28;20233;-69
2023/10/16 03:12:09;;;;;;;3.78;2.10;;;0.50;99.90;;;;;;2071499;28;20265;-69
2023/10/16 03:13:11;;;;;;;2.95;2.42;;;0.50;99.90;;;;;;2074946;28;20229;-69
2023/10/16 03:14:11;;;;;;;2.22;1.92;;;0.50;99.90;;;;;;2082446;28;20185;-69
2023/10/16 03:15:15;;;;;;;2.83;1.80;;;0.50;99.90;;;;;;2072813;28;20224;-69
2023/10/16 03:16:23;;;;;;;3.42;2.30;;;0.50;99.90;;;;;;2080706;28;20284;-70
2023/10/16 03:17:34;;;;;;;2.92;2.08;;;0.50;99.90;;;;;;2082064;28;20232;-69
2023/10/16 03:18:35;;;;;;;2.50;2.30;;;0.50;99.90;;;;;;2083647;28;20217;-69
2023/10/16 03:19:35;;;;;;;3.83;2.10;;;0.50;99.90;;;;;;2091116;28;20311;-68
2023/10/16 03:20:36;;;;;;;3.20;1.90;;;0.60;99.90;;;;;;2084385;28;20269;-68
2023/10/16 03:21:39;;;;;;;2.10;1.60;;;0.60;99.90;;;;;;2087643;28;20220;-69
2023/10/16 03:22:40;;;;;;;3.05;1.70;;;0.60;99.90;;;;;;2073230;28;20220;-71
2023/10/16 03:23:49;;;;;;;2.33;1.80;;;0.60;99.90;;;;;;2066914;28;20221;-70
2023/10/16 03:24:51;;;;;;;4.90;2.00;;;0.60;99.90;;;;;;2075927;28;20300;-70
2023/10/16 03:25:52;;;;;;;5.53;2.17;;;0.50;99.90;;;;;;2081649;28;20279;-70
2023/10/16 03:26:57;;;;;;;3.20;2.00;;;0.40;99.90;;;;;;2087858;28;20315;-70
2023/10/16 03:27:57;;;;;;;3.00;2.33;;;0.50;99.90;;;;;;2086234;28;20282;-69
2023/10/16 03:29:00;;;;;;;4.87;2.10;;;0.50;99.90;;;;;;2080378;28;20224;-70
2023/10/16 03:30:00;;;;;;;3.25;2.28;;;0.50;99.90;;;;;;2072291;28;20295;-70
2023/10/16 03:31:03;;;;;;;5.23;2.10;;;0.50;99.90;;;;;;2068719;28;20229;-69
2023/10/16 03:32:07;;;;;;;3.30;1.95;;;0.50;99.90;;;;;;2068438;28;20297;-70
2023/10/16 03:33:08;;;;;;;2.65;1.63;;;0.50;99.90;;;;;;2076241;28;20186;-68
2023/10/16 03:34:11;;;;;;;4.85;1.88;;;0.60;99.90;;;;;;2081211;28;20216;-69
2023/10/16 03:35:15;;;;;;;3.08;1.95;;;0.50;99.90;;;;;;2080450;28;20184;-70
2023/10/16 03:36:16;;;;;;;2.55;1.88;;;0.50;99.90;;;;;;2081041;28;20192;-69
2023/10/16 03:37:18;;;;;;;3.47;1.80;;;0.50;99.90;;;;;;2071992;28;20694;-69
2023/10/16 03:38:26;;;;;;;2.10;1.90;;;0.60;99.90;;;;;;2064230;28;20209;-69
2023/10/16 03:39:27;;;;;;;2.67;2.10;;;0.60;99.90;;;;;;2073076;28;20612;-69
2023/10/16 03:40:28;;;;;;;3.47;2.27;;;0.50;99.90;;;;;;2071961;28;20307;-69
2023/10/16 03:41:32;;;;;;;3.67;2.10;;;0.50;99.90;;;;;;2076683;28;20232;-69
2023/10/16 03:42:34;;;;;;;2.50;1.90;;;0.50;99.90;;;;;;2083701;28;20238;-69
2023/10/16 03:43:35;;;;;;;2.50;1.67;;;0.50;99.90;;;;;;2077065;28;20260;-69
2023/10/16 03:44:38;;;;;;;3.87;2.00;;;0.50;99.90;;;;;;2077923;28;20225;-69
2023/10/16 03:45:40;;;;;;;2.78;2.42;;;0.50;99.90;;;;;;2080581;28;20233;-69
2023/10/16 03:46:41;;;;;;;4.70;2.88;;;0.50;99.90;;;;;;2080888;28;20229;-70
2023/10/16 03:47:42;;;;;;;2.58;2.15;;;0.50;99.90;;;;;;2081378;28;20352;-69
2023/10/16 03:48:44;;;;;;;3.50;2.27;;;0.50;99.90;;;;;;2072143;28;20253;-69
2023/10/16 03:49:46;;;;;;;2.30;2.10;;;0.50;99.90;;;;;;2058170;28;20245;-69
2023/10/16 03:50:47;;;;;;;3.33;2.20;;;0.50;99.90;;;;;;2081895;28;20735;-69
2023/10/16 03:51:48;;;;;;;2.40;2.20;;;0.50;99.90;;;;;;2086254;28;20225;-70
2023/10/16 03:52:49;;;;;;;3.05;2.22;;;0.60;99.90;;;;;;2076889;28;20224;-69
2023/10/16 03:53:52;;;;;;;3.25;2.47;;;0.60;99.90;;;;;;2081197;28;20619;-69
2023/10/16 03:54:53;;;;;;;3.03;2.17;;;0.60;99.90;;;;;;2080320;28;21723;-69
2023/10/16 03:55:54;;;;;;;3.03;2.20;;;0.60;99.90;;;;;;2081191;28;20232;-69
2023/10/16 03:56:55;;;;;;;3.30;2.47;;;0.60;99.90;;;;;;2087134;28;20226;-70
2023/10/16 03:57:56;;;;;;;4.25;2.28;;;0.60;99.90;;;;;;2088262;28;20223;-69
2023/10/16 03:58:57;;;;;;;3.22;2.45;;;0.50;99.90;;;;;;2088174;28;20224;-69
2023/10/16 03:59:59;;;;;;;3.25;2.20;;;0.60;99.90;;;;;;2088585;28;20228;-69
2023/10/16 04:01:10;;;;;;;3.58;2.70;;;0.50;99.90;;;;;;2080657;28;20352;-69
2023/10/16 04:02:19;;;;;;;4.75;2.50;;;0.50;99.90;;;;;;2077763;28;20253;-69
2023/10/16 04:03:21;;;;;;;6.65;2.58;;;0.50;99.90;;;;;;2088150;28;20218;-69
2023/10/16 04:04:25;;;;;;;2.88;2.38;;;0.40;99.90;;;;;;2087588;28;20184;-70
2023/10/16 04:06:47;;;;;;;2.78;2.20;;;0.40;99.90;;;;;;2090015;28;20224;-70
2023/10/16 04:07:49;;;;;;;2.60;2.30;;;0.40;99.90;;;;;;2078496;28;20221;-69
2023/10/16 04:08:51;;;;;;;3.30;1.80;;;0.40;99.90;;;;;;2080761;28;20228;-70
2023/10/16 04:09:52;;;;;;;4.45;2.40;;;0.40;99.90;;;;;;2065992;28;20731;-69
2023/10/16 04:10:53;;;;;;;2.80;1.95;;;0.40;99.90;;;;;;2073357;28;20225;-69
2023/10/16 04:11:54;;;;;;;3.67;2.28;;;0.40;99.90;;;;;;2079083;28;20954;-69
2023/10/16 04:12:59;;;;;;;2.97;1.97;;;0.40;99.90;;;;;;2078778;28;20274;-69
2023/10/16 04:14:00;;;;;;;3.65;2.13;;;0.40;99.90;;;;;;2073086;28;20474;-69
2023/10/16 04:15:14;;;;;;;3.47;2.10;;;0.40;99.90;;;;;;2085871;28;20227;-69
2023/10/16 04:17:43;;;;;;;4.85;2.50;;;0.40;99.90;;;;;;2088457;28;20681;-69
2023/10/16 04:18:46;;;;;;;3.85;2.30;;;0.40;99.90;;;;;;2080579;28;20224;-69
2023/10/16 04:19:53;;;;;;;3.60;2.30;;;0.30;99.90;;;;;;2078627;28;20221;-69
2023/10/16 04:22:16;;;;;;;2.58;2.03;;;0.20;99.90;;;;;;2077149;28;20235;-69
2023/10/16 04:24:56;;;;;;;3.13;2.42;;;0.20;99.90;;;;;;2059777;28;20782;-69
2023/10/16 04:28:19;;;;;;;4.23;2.33;;;0.30;99.90;;;;;;2058641;28;20203;-69
2023/10/16 04:32:07;;;;;;;3.25;2.20;;;0.10;99.90;;;;;;2085095;28;20192;-70
2023/10/16 04:32:56;;;;;;;3.47;2.40;;;0.10;99.90;;;;;;2080439;28;20238;-71
2023/10/16 04:34:13;;;;;;;4.22;2.25;;;0.20;99.90;;;;;;2077017;28;20231;-69
2023/10/16 04:36:52;;;;;;;3.03;2.30;;;0.30;99.90;;;;;;2080573;28;20308;-69
2023/10/16 04:37:55;;;;;;;3.35;2.50;;;0.20;99.90;;;;;;2077790;28;20213;-69
2023/10/16 04:38:56;;;;;;;4.15;2.40;;;0.30;99.90;;;;;;2068171;28;20228;-69
2023/10/16 04:42:50;;;;;;;5.82;2.75;;;0.30;99.90;;;;;;2087721;28;20228;-70
2023/10/16 04:44:22;;;;;;;4.13;2.70;;;0.30;99.90;;;;;;2088971;28;20250;-69
2023/10/16 04:46:31;;;;;;;3.90;2.10;;;0.40;99.90;;;;;;2082880;28;20572;-69
2023/10/16 04:47:42;;;;;;;3.33;2.50;;;0.40;99.90;;;;;;2086761;28;20718;-69
2023/10/16 04:48:48;;;;;;;3.03;2.38;;;0.40;99.90;;;;;;2080931;28;20252;-69
2023/10/16 04:50:07;;;;;;;4.22;3.03;;;0.30;99.90;;;;;;2077664;28;20362;-69
2023/10/16 04:51:16;;;;;;;4.88;2.55;;;0.20;99.90;;;;;;2078856;28;20235;-69
2023/10/16 04:52:36;;;;;;;4.68;2.50;;;0.20;99.90;;;;;;2086204;28;20204;-69
2023/10/16 04:53:48;;;;;;;4.03;2.70;;;0.20;99.90;;;;;;2079929;28;20228;-69
2023/10/16 04:54:59;;;;;;;3.28;2.58;;;0.30;99.90;;;;;;2078620;28;20232;-69
2023/10/16 04:56:15;;;;;;;4.13;2.42;;;0.20;99.90;;;;;;2072824;28;20227;-69
2023/10/16 04:59:37;;;;;;;3.42;2.30;;;0.30;99.90;;;;;;2080817;28;20211;-70
2023/10/16 05:02:29;;;;;;;4.07;2.30;;;0.40;99.90;;;;;;2083156;28;20258;-69
2023/10/16 05:07:17;;;;;;;5.45;2.70;;;0.20;99.90;;;;;;2080878;28;20212;-69
2023/10/16 05:08:31;;;;;;;2.90;2.20;;;0.20;99.90;;;;;;2083095;28;20194;-69
2023/10/16 05:11:23;;;;;;;3.47;1.95;;;0.20;99.90;;;;;;2085804;28;20302;-69
2023/10/16 05:13:43;;;;;;;4.68;2.60;;;0.30;99.90;;;;;;2082679;28;20874;-69
2023/10/16 05:19:02;;;;;;;4.10;2.67;;;-0.10;99.90;;;;;;2052540;28;20238;-69
2023/10/16 06:14:35;;;;;;;6.50;3.55;;;0.30;99.90;;;;;;2087966;28;20220;-68
2023/10/16 06:15:37;;;;;;;5.57;3.60;;;0.30;99.90;;;;;;2086693;28;20232;-68
2023/10/16 06:16:42;;;;;;;5.78;3.40;;;0.30;99.90;;;;;;2088704;28;20228;-68
2023/10/16 06:17:43;;;;;;;6.53;3.53;;;0.40;99.90;;;;;;2087744;28;20266;-68
2023/10/16 06:18:45;;;;;;;5.57;3.00;;;0.30;99.90;;;;;;2086644;28;20242;-68
2023/10/16 06:19:45;;;;;;;3.92;3.08;;;0.20;99.90;;;;;;2090113;28;20232;-69
2023/10/16 06:20:46;;;;;;;3.43;2.90;;;0.30;99.90;;;;;;2090656;28;20293;-68
2023/10/16 06:21:50;;;;;;;3.67;2.70;;;0.40;99.90;;;;;;2089921;28;20690;-68
2023/10/16 06:22:51;;;;;;;4.43;3.10;;;0.40;99.90;;;;;;2084562;28;20228;-68
2023/10/16 06:23:51;;;;;;;3.90;3.00;;;0.40;99.90;;;;;;2087641;28;20262;-69
2023/10/16 06:24:52;;;;;;;5.67;3.60;;;0.40;99.90;;;;;;2087771;28;20515;-68
2023/10/16 06:25:53;;;;;;;5.13;3.53;;;0.40;99.90;;;;;;2082038;28;20240;-68
2023/10/16 06:26:57;;;;;;;4.27;3.00;;;0.50;99.90;;;;;;2082116;28;20624;-68
2023/10/16 06:27:59;;;;;;;3.67;3.00;;;0.50;99.90;;;;;;2089705;28;20228;-68
2023/10/16 06:28:59;;;;;;;3.90;2.95;;;0.50;99.90;;;;;;2073559;28;20228;-68
2023/10/16 06:30:00;;;;;;;3.73;2.83;;;0.50;99.90;;;;;;2068074;28;20253;-68
2023/10/16 06:31:01;;;;;;;4.53;3.10;;;0.50;99.90;;;;;;2081342;28;20235;-68
2023/10/16 06:32:07;;;;;;;4.23;3.10;;;0.60;99.90;;;;;;2090288;28;20285;-68
2023/10/16 06:33:08;;;;;;;3.50;2.58;;;0.60;99.90;;;;;;2082400;28;20220;-68
2023/10/16 06:34:11;;;;;;;5.13;2.80;;;0.70;99.90;;;;;;2081494;28;20189;-68
2023/10/16 06:35:16;;;;;;;3.60;3.00;;;0.60;99.90;;;;;;2082189;28;20212;-68
2023/10/16 06:36:17;;;;;;;3.78;2.45;;;0.60;99.90;;;;;;2082566;28;20711;-71
2023/10/16 06:37:18;;;;;;;4.45;2.65;;;0.70;99.90;;;;;;2082385;28;20216;-69
2023/10/16 06:38:21;;;;;;;4.10;2.97;;;0.80;99.90;;;;;;2089076;28;20183;-69
2023/10/16 06:39:28;;;;;;;4.47;2.97;;;0.80;99.90;;;;;;2088021;28;20180;-69
2023/10/16 06:40:32;;;;;;;4.72;3.08;;;0.90;99.90;;;;;;2089475;28;20217;-69
2023/10/16 06:41:33;;;;;;;3.97;3.42;;;0.90;99.90;;;;;;2082787;28;20299;-69
2023/10/16 06:42:34;;;;;;;4.65;3.05;;;0.90;99.90;;;;;;2070746;28;20222;-69
2023/10/16 06:43:35;;;;;;;3.30;2.90;;;0.90;99.90;;;;;;2065693;28;20819;-70
2023/10/16 06:44:36;;;;;;;3.67;3.05;;;0.90;99.90;;;;;;2073444;28;20225;-67
2023/10/16 06:45:42;;;;;;;3.13;2.77;;;0.90;99.90;;;;;;2084197;28;20224;-67
2023/10/16 06:46:43;;;;;;;4.47;2.70;;;0.90;99.90;;;;;;2087324;28;20266;-67
2023/10/16 06:47:47;;;;;;;6.00;2.97;;;1.00;99.90;;;;;;2085523;28;20300;-67
2023/10/16 06:48:49;;;;;;;4.82;2.70;;;1.00;99.90;;;;;;2082187;28;20248;-68
2023/10/16 06:49:51;;;;;;;4.97;4.15;;;1.00;99.90;;;;;;2090752;28;20777;-68
2023/10/16 06:50:54;;;;;;;3.47;3.10;;;1.00;99.90;;;;;;2090415;28;20224;-68
2023/10/16 06:51:58;;;;;;;4.70;3.70;;;1.00;99.90;;;;;;2090142;28;20480;-68
2023/10/16 06:53:00;;;;;;;3.63;3.28;;;1.10;99.90;;;;;;2081887;28;20225;-68
2023/10/16 06:54:05;;;;;;;4.55;3.53;;;1.20;99.90;;;;;;2074075;28;20230;-68
2023/10/16 06:55:06;;;;;;;5.53;3.95;;;1.30;99.90;;;;;;2075204;28;20240;-68
2023/10/16 06:56:06;;;;;;;6.60;3.30;;;1.30;99.90;;;;;;2087527;28;20193;-68
2023/10/16 06:57:13;;;;;;;5.23;3.30;;;1.40;99.90;;;;;;2088287;28;20188;-68
2023/10/16 06:58:16;;;;;;;4.75;3.78;;;1.40;99.90;;;;;;2092052;28;20723;-68
2023/10/16 06:59:16;;;;;;;7.20;3.70;;;1.40;99.90;;;;;;2092910;28;20181;-68
2023/10/16 07:00:27;;;;;;;5.00;3.30;;;1.40;99.90;;;;;;2088617;28;20188;-68
2023/10/16 07:01:28;;;;;;;4.90;3.47;;;1.40;99.90;;;;;;2091691;28;20240;-68